sensor_id;sensor_type;location;lat;lon;timestamp;temperature;humidity
3678;DHT22;1855;50.934;6.958;2023-02-03T00:01:21;8.80;99.90
3678;DHT22;1855;50.934;6.958;2023-02-03T00:03:50;8.80;99.90
3678;DHT22;1855;50.934;6.958;2023-02-03T00:06:16;8.90;99.90
3678;DHT22;1855;50.934;6.958;2023-02-03T00:08:43;8.90;99.90
3678;DHT22;1855;50.934;6.958;2023-02-03T00:11:10;8.90;99.90
3678;DHT22;1855;50.934;6.958;2023-02-03T00:13:37;8.90;99.90
3678;DHT22;1855;50.934;6.958;2023-02-03T00:16:04;8.90;99.90
3678;DHT22;1855;50.934;6.958;2023-02-03T00:18:32;8.90;99.90
3678;DHT22;1855;50.934;6.958;2023-02-03T00:21:00;8.90;99.90
3678;DHT22;1855;50.934;6.958;2023-02-03T00:23:27;8.90;99.90
3678;DHT22;1855;50.934;6.958;2023-02-03T00:25:56;8.90;99.90
3678;DHT22;1855;50.934;6.958;2023-02-03T00:28:23;8.90;99.90
3678;DHT22;1855;50.934;6.958;2023-02-03T00:30:52;8.90;99.90
3678;DHT22;1855;50.934;6.958;2023-02-03T00:33:19;9.00;99.90
3678;DHT22;1855;50.934;6.958;2023-02-03T00:35:46;8.90;99.90
3678;DHT22;1855;50.934;6.958;2023-02-03T00:38:14;9.00;99.90
3678;DHT22;1855;50.934;6.958;2023-02-03T00:40:41;8.90;99.90
3678;DHT22;1855;50.934;6.958;2023-02-03T00:43:07;9.00;99.90
3678;DHT22;1855;50.934;6.958;2023-02-03T00:45:34;9.00;99.90
3678;DHT22;1855;50.934;6.958;2023-02-03T00:48:01;9.00;99.90
3678;DHT22;1855;50.934;6.958;2023-02-03T00:50:27;9.00;99.90
3678;DHT22;1855;50.934;6.958;2023-02-03T00:52:54;9.00;99.90
3678;DHT22;1855;50.934;6.958;2023-02-03T00:55:22;9.00;99.90
3678;DHT22;1855;50.934;6.958;2023-02-03T00:57:49;9.00;99.90
3678;DHT22;1855;50.934;6.958;2023-02-03T01:00:17;9.00;99.90
3678;DHT22;1855;50.934;6.958;2023-02-03T01:02:44;9.00;99.90
3678;DHT22;1855;50.934;6.958;2023-02-03T01:05:11;9.00;99.90
3678;DHT22;1855;50.934;6.958;2023-02-03T01:07:37;9.00;99.90
3678;DHT22;1855;50.934;6.958;2023-02-03T01:10:05;9.00;99.90
3678;DHT22;1855;50.934;6.958;2023-02-03T01:12:33;9.00;99.90
3678;DHT22;1855;50.934;6.958;2023-02-03T01:15:00;9.00;99.90
3678;DHT22;1855;50.934;6.958;2023-02-03T01:17:27;9.00;99.90
3678;DHT22;1855;50.934;6.958;2023-02-03T01:19:54;9.00;99.90
3678;DHT22;1855;50.934;6.958;2023-02-03T01:22:20;9.00;99.90
3678;DHT22;1855;50.934;6.958;2023-02-03T01:24:47;9.10;99.90
3678;DHT22;1855;50.934;6.958;2023-02-03T01:27:14;9.10;99.90
3678;DHT22;1855;50.934;6.958;2023-02-03T01:29:42;9.10;99.90
3678;DHT22;1855;50.934;6.958;2023-02-03T01:32:09;9.10;99.90
3678;DHT22;1855;50.934;6.958;2023-02-03T01:34:35;9.10;99.90
3678;DHT22;1855;50.934;6.958;2023-02-03T01:37:02;9.10;99.90
3678;DHT22;1855;50.934;6.958;2023-02-03T01:39:29;9.10;99.90
3678;DHT22;1855;50.934;6.958;2023-02-03T01:41:56;9.10;99.90
3678;DHT22;1855;50.934;6.958;2023-02-03T01:44:42;9.10;99.90
3678;DHT22;1855;50.934;6.958;2023-02-03T01:47:20;9.10;99.90
3678;DHT22;1855;50.934;6.958;2023-02-03T01:49:50;9.10;99.90
3678;DHT22;1855;50.934;6.958;2023-02-03T01:52:18;9.10;99.90
3678;DHT22;1855;50.934;6.958;2023-02-03T01:54:46;9.10;99.90
3678;DHT22;1855;50.934;6.958;2023-02-03T01:57:19;9.10;99.90
3678;DHT22;1855;50.934;6.958;2023-02-03T01:59:49;9.10;99.90
3678;DHT22;1855;50.934;6.958;2023-02-03T02:02:17;9.10;99.90
3678;DHT22;1855;50.934;6.958;2023-02-03T02:04:49;9.10;99.90
3678;DHT22;1855;50.934;6.958;2023-02-03T02:07:19;9.10;99.90
3678;DHT22;1855;50.934;6.958;2023-02-03T02:09:46;9.10;99.90
3678;DHT22;1855;50.934;6.958;2023-02-03T02:12:13;9.10;99.90
3678;DHT22;1855;50.934;6.958;2023-02-03T02:14:40;9.10;99.90
3678;DHT22;1855;50.934;6.958;2023-02-03T02:17:15;9.10;99.90
3678;DHT22;1855;50.934;6.958;2023-02-03T02:23:00;9.10;99.90
3678;DHT22;1855;50.934;6.958;2023-02-03T02:25:52;9.10;99.90
3678;DHT22;1855;50.934;6.958;2023-02-03T02:31:47;9.10;99.90
3678;DHT22;1855;50.934;6.958;2023-02-03T02:34:23;9.10;99.90
3678;DHT22;1855;50.934;6.958;2023-02-03T02:36:57;9.10;99.90
3678;DHT22;1855;50.934;6.958;2023-02-03T02:39:33;9.10;99.90
3678;DHT22;1855;50.934;6.958;2023-02-03T02:42:07;9.10;99.90
3678;DHT22;1855;50.934;6.958;2023-02-03T02:44:40;9.10;99.90
3678;DHT22;1855;50.934;6.958;2023-02-03T02:47:15;9.10;99.90
3678;DHT22;1855;50.934;6.958;2023-02-03T02:49:46;9.10;99.90
3678;DHT22;1855;50.934;6.958;2023-02-03T02:52:15;9.10;99.90
3678;DHT22;1855;50.934;6.958;2023-02-03T02:54:47;9.00;99.90
3678;DHT22;1855;50.934;6.958;2023-02-03T02:57:17;9.00;99.90
3678;DHT22;1855;50.934;6.958;2023-02-03T02:59:45;9.00;99.90
3678;DHT22;1855;50.934;6.958;2023-02-03T03:02:14;9.00;99.90
3678;DHT22;1855;50.934;6.958;2023-02-03T03:04:43;9.10;99.90
3678;DHT22;1855;50.934;6.958;2023-02-03T03:07:16;9.00;99.90
3678;DHT22;1855;50.934;6.958;2023-02-03T03:09:47;9.00;99.90
3678;DHT22;1855;50.934;6.958;2023-02-03T03:12:17;9.00;99.90
3678;DHT22;1855;50.934;6.958;2023-02-03T03:14:49;9.00;99.90
3678;DHT22;1855;50.934;6.958;2023-02-03T03:17:22;9.00;99.90
3678;DHT22;1855;50.934;6.958;2023-02-03T03:19:53;9.10;99.90
3678;DHT22;1855;50.934;6.958;2023-02-03T03:22:24;9.00;99.90
3678;DHT22;1855;50.934;6.958;2023-02-03T03:24:57;9.10;99.90
3678;DHT22;1855;50.934;6.958;2023-02-03T03:27:30;9.00;99.90
3678;DHT22;1855;50.934;6.958;2023-02-03T03:30:01;9.00;99.90
3678;DHT22;1855;50.934;6.958;2023-02-03T03:32:30;9.00;99.90
3678;DHT22;1855;50.934;6.958;2023-02-03T03:34:59;9.10;99.90
3678;DHT22;1855;50.934;6.958;2023-02-03T03:37:31;9.10;99.90
3678;DHT22;1855;50.934;6.958;2023-02-03T03:40:01;9.10;99.90
3678;DHT22;1855;50.934;6.958;2023-02-03T03:42:36;9.00;99.90
3678;DHT22;1855;50.934;6.958;2023-02-03T03:45:08;9.00;99.90
3678;DHT22;1855;50.934;6.958;2023-02-03T03:47:43;9.00;99.90
3678;DHT22;1855;50.934;6.958;2023-02-03T03:50:16;9.00;99.90
3678;DHT22;1855;50.934;6.958;2023-02-03T03:52:45;9.00;99.90
3678;DHT22;1855;50.934;6.958;2023-02-03T03:55:13;9.00;99.90
3678;DHT22;1855;50.934;6.958;2023-02-03T03:57:45;9.00;99.90
3678;DHT22;1855;50.934;6.958;2023-02-03T04:00:19;9.00;99.90
3678;DHT22;1855;50.934;6.958;2023-02-03T04:02:51;9.00;99.90
3678;DHT22;1855;50.934;6.958;2023-02-03T04:05:19;9.00;99.90
3678;DHT22;1855;50.934;6.958;2023-02-03T04:07:47;9.00;99.90
3678;DHT22;1855;50.934;6.958;2023-02-03T04:10:20;9.00;99.90
3678;DHT22;1855;50.934;6.958;2023-02-03T04:12:48;9.00;99.90
3678;DHT22;1855;50.934;6.958;2023-02-03T04:15:15;9.10;99.90
3678;DHT22;1855;50.934;6.958;2023-02-03T04:17:42;9.00;99.90
3678;DHT22;1855;50.934;6.958;2023-02-03T04:20:11;9.00;99.90
3678;DHT22;1855;50.934;6.958;2023-02-03T04:22:38;9.00;99.90
3678;DHT22;1855;50.934;6.958;2023-02-03T04:25:06;9.00;99.90
3678;DHT22;1855;50.934;6.958;2023-02-03T04:27:33;9.00;99.90
3678;DHT22;1855;50.934;6.958;2023-02-03T04:30:00;9.00;99.90
3678;DHT22;1855;50.934;6.958;2023-02-03T04:32:27;9.00;99.90
3678;DHT22;1855;50.934;6.958;2023-02-03T04:34:55;9.00;99.90
3678;DHT22;1855;50.934;6.958;2023-02-03T04:37:23;9.00;99.90
3678;DHT22;1855;50.934;6.958;2023-02-03T04:39:51;9.00;99.90
3678;DHT22;1855;50.934;6.958;2023-02-03T04:42:18;9.00;99.90
3678;DHT22;1855;50.934;6.958;2023-02-03T04:44:45;9.00;99.90
3678;DHT22;1855;50.934;6.958;2023-02-03T04:47:11;9.00;99.90
3678;DHT22;1855;50.934;6.958;2023-02-03T04:49:38;9.00;99.90
3678;DHT22;1855;50.934;6.958;2023-02-03T04:52:05;9.00;99.90
3678;DHT22;1855;50.934;6.958;2023-02-03T04:54:34;9.00;99.90
3678;DHT22;1855;50.934;6.958;2023-02-03T04:57:01;9.00;99.90
3678;DHT22;1855;50.934;6.958;2023-02-03T04:59:28;9.00;99.90
3678;DHT22;1855;50.934;6.958;2023-02-03T05:01:55;9.00;99.90
3678;DHT22;1855;50.934;6.958;2023-02-03T05:04:22;9.00;99.90
3678;DHT22;1855;50.934;6.958;2023-02-03T05:06:49;9.00;99.90
3678;DHT22;1855;50.934;6.958;2023-02-03T05:09:15;9.00;99.90
3678;DHT22;1855;50.934;6.958;2023-02-03T05:11:44;9.00;99.90
3678;DHT22;1855;50.934;6.958;2023-02-03T05:14:10;9.00;99.90
3678;DHT22;1855;50.934;6.958;2023-02-03T05:16:37;9.00;99.90
3678;DHT22;1855;50.934;6.958;2023-02-03T05:19:04;9.00;99.90
3678;DHT22;1855;50.934;6.958;2023-02-03T05:21:31;9.00;99.90
3678;DHT22;1855;50.934;6.958;2023-02-03T05:23:57;9.00;99.90
3678;DHT22;1855;50.934;6.958;2023-02-03T05:26:24;9.00;99.90
3678;DHT22;1855;50.934;6.958;2023-02-03T05:28:53;9.00;99.90
3678;DHT22;1855;50.934;6.958;2023-02-03T05:31:19;9.00;99.90
3678;DHT22;1855;50.934;6.958;2023-02-03T05:33:46;9.00;99.90
3678;DHT22;1855;50.934;6.958;2023-02-03T05:36:13;9.00;99.90
3678;DHT22;1855;50.934;6.958;2023-02-03T05:38:39;9.00;99.90
3678;DHT22;1855;50.934;6.958;2023-02-03T05:41:08;9.00;99.90
3678;DHT22;1855;50.934;6.958;2023-02-03T05:43:54;9.00;99.90
3678;DHT22;1855;50.934;6.958;2023-02-03T05:46:21;9.00;99.90
3678;DHT22;1855;50.934;6.958;2023-02-03T05:48:48;9.00;99.90
3678;DHT22;1855;50.934;6.958;2023-02-03T05:51:15;9.00;99.90
3678;DHT22;1855;50.934;6.958;2023-02-03T05:53:42;9.00;99.90
3678;DHT22;1855;50.934;6.958;2023-02-03T05:56:08;9.00;99.90
3678;DHT22;1855;50.934;6.958;2023-02-03T05:58:35;9.00;99.90
3678;DHT22;1855;50.934;6.958;2023-02-03T06:01:04;9.00;99.90
3678;DHT22;1855;50.934;6.958;2023-02-03T06:03:30;9.00;99.90
3678;DHT22;1855;50.934;6.958;2023-02-03T06:05:57;9.00;99.90
3678;DHT22;1855;50.934;6.958;2023-02-03T06:08:24;9.00;99.90
3678;DHT22;1855;50.934;6.958;2023-02-03T06:10:56;9.10;99.90
3678;DHT22;1855;50.934;6.958;2023-02-03T06:13:24;9.10;99.90
3678;DHT22;1855;50.934;6.958;2023-02-03T06:15:50;9.10;99.90
3678;DHT22;1855;50.934;6.958;2023-02-03T06:18:19;9.10;99.90
3678;DHT22;1855;50.934;6.958;2023-02-03T06:20:45;9.10;99.90
3678;DHT22;1855;50.934;6.958;2023-02-03T06:23:12;9.10;99.90
3678;DHT22;1855;50.934;6.958;2023-02-03T06:25:41;9.10;99.90
3678;DHT22;1855;50.934;6.958;2023-02-03T06:28:08;9.10;99.90
3678;DHT22;1855;50.934;6.958;2023-02-03T06:30:35;9.10;99.90
3678;DHT22;1855;50.934;6.958;2023-02-03T06:33:02;9.10;99.90
3678;DHT22;1855;50.934;6.958;2023-02-03T06:35:30;9.10;99.80
3678;DHT22;1855;50.934;6.958;2023-02-03T06:37:57;9.10;99.80
3678;DHT22;1855;50.934;6.958;2023-02-03T06:40:25;9.10;99.80
3678;DHT22;1855;50.934;6.958;2023-02-03T06:42:52;9.10;99.70
3678;DHT22;1855;50.934;6.958;2023-02-03T06:45:18;9.10;99.70
3678;DHT22;1855;50.934;6.958;2023-02-03T06:47:45;9.10;99.60
3678;DHT22;1855;50.934;6.958;2023-02-03T06:50:14;9.10;99.80
3678;DHT22;1855;50.934;6.958;2023-02-03T06:52:42;9.10;99.60
3678;DHT22;1855;50.934;6.958;2023-02-03T06:55:09;9.10;99.50
3678;DHT22;1855;50.934;6.958;2023-02-03T06:57:42;9.20;99.50
3678;DHT22;1855;50.934;6.958;2023-02-03T07:00:10;9.20;99.40
3678;DHT22;1855;50.934;6.958;2023-02-03T07:02:38;9.20;99.50
3678;DHT22;1855;50.934;6.958;2023-02-03T07:05:05;9.10;99.70
3678;DHT22;1855;50.934;6.958;2023-02-03T07:07:32;9.10;99.60
3678;DHT22;1855;50.934;6.958;2023-02-03T07:10:00;9.10;99.70
3678;DHT22;1855;50.934;6.958;2023-02-03T07:12:27;9.10;99.70
3678;DHT22;1855;50.934;6.958;2023-02-03T07:14:54;9.10;99.60
3678;DHT22;1855;50.934;6.958;2023-02-03T07:17:21;9.10;99.50
3678;DHT22;1855;50.934;6.958;2023-02-03T07:19:48;9.20;99.40
3678;DHT22;1855;50.934;6.958;2023-02-03T07:22:15;9.10;99.50
3678;DHT22;1855;50.934;6.958;2023-02-03T07:24:42;9.20;99.50
3678;DHT22;1855;50.934;6.958;2023-02-03T07:27:11;9.20;99.40
3678;DHT22;1855;50.934;6.958;2023-02-03T07:29:38;9.20;99.30
3678;DHT22;1855;50.934;6.958;2023-02-03T07:32:05;9.20;99.10
3678;DHT22;1855;50.934;6.958;2023-02-03T07:34:32;9.20;99.20
3678;DHT22;1855;50.934;6.958;2023-02-03T07:36:59;9.20;99.10
3678;DHT22;1855;50.934;6.958;2023-02-03T07:39:25;9.20;99.00
3678;DHT22;1855;50.934;6.958;2023-02-03T07:41:52;9.20;99.10
3678;DHT22;1855;50.934;6.958;2023-02-03T07:44:20;9.20;98.80
3678;DHT22;1855;50.934;6.958;2023-02-03T07:46:47;9.30;98.80
3678;DHT22;1855;50.934;6.958;2023-02-03T07:49:14;9.20;98.80
3678;DHT22;1855;50.934;6.958;2023-02-03T07:51:40;9.30;98.60
3678;DHT22;1855;50.934;6.958;2023-02-03T07:54:07;9.30;98.70
3678;DHT22;1855;50.934;6.958;2023-02-03T07:56:34;9.30;98.50
3678;DHT22;1855;50.934;6.958;2023-02-03T07:59:01;9.30;98.30
3678;DHT22;1855;50.934;6.958;2023-02-03T08:01:29;9.30;98.20
3678;DHT22;1855;50.934;6.958;2023-02-03T08:03:58;9.30;98.20
3678;DHT22;1855;50.934;6.958;2023-02-03T08:06:26;9.30;98.20
3678;DHT22;1855;50.934;6.958;2023-02-03T08:08:55;9.40;98.10
3678;DHT22;1855;50.934;6.958;2023-02-03T08:11:21;9.40;97.80
3678;DHT22;1855;50.934;6.958;2023-02-03T08:13:48;9.40;97.90
3678;DHT22;1855;50.934;6.958;2023-02-03T08:16:15;9.40;97.70
3678;DHT22;1855;50.934;6.958;2023-02-03T08:18:43;9.40;97.50
3678;DHT22;1855;50.934;6.958;2023-02-03T08:21:10;9.40;97.70
3678;DHT22;1855;50.934;6.958;2023-02-03T08:23:37;9.40;97.60
3678;DHT22;1855;50.934;6.958;2023-02-03T08:26:04;9.40;97.80
3678;DHT22;1855;50.934;6.958;2023-02-03T08:28:31;9.40;97.60
3678;DHT22;1855;50.934;6.958;2023-02-03T08:30:58;9.40;97.50
3678;DHT22;1855;50.934;6.958;2023-02-03T08:33:25;9.50;97.50
3678;DHT22;1855;50.934;6.958;2023-02-03T08:35:54;9.40;97.30
3678;DHT22;1855;50.934;6.958;2023-02-03T08:38:21;9.40;97.60
3678;DHT22;1855;50.934;6.958;2023-02-03T08:40:48;9.50;97.50
3678;DHT22;1855;50.934;6.958;2023-02-03T08:43:15;9.50;97.40
3678;DHT22;1855;50.934;6.958;2023-02-03T08:45:42;9.50;97.60
3678;DHT22;1855;50.934;6.958;2023-02-03T08:48:08;9.50;97.80
3678;DHT22;1855;50.934;6.958;2023-02-03T08:50:35;9.50;98.40
3678;DHT22;1855;50.934;6.958;2023-02-03T08:53:03;9.40;98.90
3678;DHT22;1855;50.934;6.958;2023-02-03T08:55:30;9.40;99.20
3678;DHT22;1855;50.934;6.958;2023-02-03T08:57:57;9.30;99.20
3678;DHT22;1855;50.934;6.958;2023-02-03T09:00:24;9.40;99.30
3678;DHT22;1855;50.934;6.958;2023-02-03T09:02:51;9.30;99.20
3678;DHT22;1855;50.934;6.958;2023-02-03T09:05:18;9.30;99.50
3678;DHT22;1855;50.934;6.958;2023-02-03T09:07:44;9.30;99.10
3678;DHT22;1855;50.934;6.958;2023-02-03T09:10:13;9.30;99.00
3678;DHT22;1855;50.934;6.958;2023-02-03T09:12:39;9.40;98.90
3678;DHT22;1855;50.934;6.958;2023-02-03T09:15:07;9.40;98.80
3678;DHT22;1855;50.934;6.958;2023-02-03T09:17:33;9.40;98.60
3678;DHT22;1855;50.934;6.958;2023-02-03T09:20:00;9.40;98.80
3678;DHT22;1855;50.934;6.958;2023-02-03T09:22:27;9.40;98.70
3678;DHT22;1855;50.934;6.958;2023-02-03T09:24:54;9.40;99.10
3678;DHT22;1855;50.934;6.958;2023-02-03T09:27:22;9.40;99.30
3678;DHT22;1855;50.934;6.958;2023-02-03T09:29:49;9.40;99.50
3678;DHT22;1855;50.934;6.958;2023-02-03T09:32:15;9.40;99.70
3678;DHT22;1855;50.934;6.958;2023-02-03T09:34:42;9.40;99.80
3678;DHT22;1855;50.934;6.958;2023-02-03T09:37:09;9.30;99.90
3678;DHT22;1855;50.934;6.958;2023-02-03T09:39:36;9.30;99.90
3678;DHT22;1855;50.934;6.958;2023-02-03T09:42:25;9.50;99.90
3678;DHT22;1855;50.934;6.958;2023-02-03T09:45:01;9.50;99.80
3678;DHT22;1855;50.934;6.958;2023-02-03T09:47:34;9.40;99.90
3678;DHT22;1855;50.934;6.958;2023-02-03T09:50:03;9.40;99.90
3678;DHT22;1855;50.934;6.958;2023-02-03T09:52:32;9.40;99.90
3678;DHT22;1855;50.934;6.958;2023-02-03T09:55:03;9.30;99.90
3678;DHT22;1855;50.934;6.958;2023-02-03T09:57:39;9.30;99.90
3678;DHT22;1855;50.934;6.958;2023-02-03T10:00:15;9.30;99.90
3678;DHT22;1855;50.934;6.958;2023-02-03T10:02:54;9.30;99.90
3678;DHT22;1855;50.934;6.958;2023-02-03T10:05:29;9.40;99.90
3678;DHT22;1855;50.934;6.958;2023-02-03T10:08:05;9.30;99.90
3678;DHT22;1855;50.934;6.958;2023-02-03T10:10:39;9.30;99.90
3678;DHT22;1855;50.934;6.958;2023-02-03T10:13:18;9.30;99.90
3678;DHT22;1855;50.934;6.958;2023-02-03T10:16:11;9.20;99.90
3678;DHT22;1855;50.934;6.958;2023-02-03T10:18:47;9.30;99.90
3678;DHT22;1855;50.934;6.958;2023-02-03T10:21:20;9.20;99.90
3678;DHT22;1855;50.934;6.958;2023-02-03T10:23:55;9.20;99.90
3678;DHT22;1855;50.934;6.958;2023-02-03T10:26:25;9.20;99.90
3678;DHT22;1855;50.934;6.958;2023-02-03T10:28:55;9.20;99.90
3678;DHT22;1855;50.934;6.958;2023-02-03T10:31:23;9.10;99.90
3678;DHT22;1855;50.934;6.958;2023-02-03T10:34:00;9.00;99.90
3678;DHT22;1855;50.934;6.958;2023-02-03T10:36:39;9.00;99.90
3678;DHT22;1855;50.934;6.958;2023-02-03T10:39:16;9.00;99.90
3678;DHT22;1855;50.934;6.958;2023-02-03T10:41:44;8.90;99.90
3678;DHT22;1855;50.934;6.958;2023-02-03T10:44:14;8.90;99.90
3678;DHT22;1855;50.934;6.958;2023-02-03T10:46:42;8.80;99.90
3678;DHT22;1855;50.934;6.958;2023-02-03T10:49:11;8.80;99.90
3678;DHT22;1855;50.934;6.958;2023-02-03T10:51:42;8.80;99.90
3678;DHT22;1855;50.934;6.958;2023-02-03T10:54:26;8.70;99.90
3678;DHT22;1855;50.934;6.958;2023-02-03T10:56:54;8.80;99.90
3678;DHT22;1855;50.934;6.958;2023-02-03T10:59:27;8.80;99.90
3678;DHT22;1855;50.934;6.958;2023-02-03T11:01:55;8.80;99.90
3678;DHT22;1855;50.934;6.958;2023-02-03T11:04:24;8.80;99.90
3678;DHT22;1855;50.934;6.958;2023-02-03T11:06:54;8.80;99.90
3678;DHT22;1855;50.934;6.958;2023-02-03T11:09:29;8.90;99.90
3678;DHT22;1855;50.934;6.958;2023-02-03T11:12:09;8.90;99.90
3678;DHT22;1855;50.934;6.958;2023-02-03T11:14:39;8.90;99.90
3678;DHT22;1855;50.934;6.958;2023-02-03T11:17:14;8.90;99.90
3678;DHT22;1855;50.934;6.958;2023-02-03T11:19:43;8.90;99.90
3678;DHT22;1855;50.934;6.958;2023-02-03T11:22:12;8.90;99.90
3678;DHT22;1855;50.934;6.958;2023-02-03T11:24:40;8.90;99.90
3678;DHT22;1855;50.934;6.958;2023-02-03T11:27:12;8.90;99.90
3678;DHT22;1855;50.934;6.958;2023-02-03T11:29:44;8.90;99.90
3678;DHT22;1855;50.934;6.958;2023-02-03T11:32:18;9.00;99.90
3678;DHT22;1855;50.934;6.958;2023-02-03T11:34:51;9.00;99.90
3678;DHT22;1855;50.934;6.958;2023-02-03T11:37:26;9.00;99.90
3678;DHT22;1855;50.934;6.958;2023-02-03T11:40:13;9.10;99.90
3678;DHT22;1855;50.934;6.958;2023-02-03T11:42:59;9.10;99.90
3678;DHT22;1855;50.934;6.958;2023-02-03T11:45:29;9.20;99.90
3678;DHT22;1855;50.934;6.958;2023-02-03T11:48:03;9.20;99.90
3678;DHT22;1855;50.934;6.958;2023-02-03T11:50:36;9.30;99.90
3678;DHT22;1855;50.934;6.958;2023-02-03T11:53:19;9.30;99.90
3678;DHT22;1855;50.934;6.958;2023-02-03T11:55:56;9.30;99.90
3678;DHT22;1855;50.934;6.958;2023-02-03T11:59:01;9.30;99.90
3678;DHT22;1855;50.934;6.958;2023-02-03T12:02:02;9.40;99.90
3678;DHT22;1855;50.934;6.958;2023-02-03T12:07:55;9.40;99.90
3678;DHT22;1855;50.934;6.958;2023-02-03T12:10:37;9.50;99.90
3678;DHT22;1855;50.934;6.958;2023-02-03T12:13:18;9.50;99.90
3678;DHT22;1855;50.934;6.958;2023-02-03T12:16:02;9.50;99.90
3678;DHT22;1855;50.934;6.958;2023-02-03T12:18:48;9.50;99.90
3678;DHT22;1855;50.934;6.958;2023-02-03T12:21:42;9.50;99.90
3678;DHT22;1855;50.934;6.958;2023-02-03T12:24:18;9.60;99.90
3678;DHT22;1855;50.934;6.958;2023-02-03T12:26:56;9.60;99.90
3678;DHT22;1855;50.934;6.958;2023-02-03T12:29:31;9.60;99.90
3678;DHT22;1855;50.934;6.958;2023-02-03T12:32:04;9.60;99.90
3678;DHT22;1855;50.934;6.958;2023-02-03T12:34:36;9.60;99.90
3678;DHT22;1855;50.934;6.958;2023-02-03T12:37:07;9.70;99.90
3678;DHT22;1855;50.934;6.958;2023-02-03T12:39:39;9.70;99.90
3678;DHT22;1855;50.934;6.958;2023-02-03T12:42:14;9.70;99.90
3678;DHT22;1855;50.934;6.958;2023-02-03T12:44:47;9.70;99.90
3678;DHT22;1855;50.934;6.958;2023-02-03T12:47:23;9.70;99.90
3678;DHT22;1855;50.934;6.958;2023-02-03T12:49:55;9.70;99.90
3678;DHT22;1855;50.934;6.958;2023-02-03T12:52:26;9.80;99.90
3678;DHT22;1855;50.934;6.958;2023-02-03T12:55:02;9.80;99.90
3678;DHT22;1855;50.934;6.958;2023-02-03T12:57:35;9.80;99.90
3678;DHT22;1855;50.934;6.958;2023-02-03T13:00:19;9.80;99.90
3678;DHT22;1855;50.934;6.958;2023-02-03T13:02:58;9.70;99.90
3678;DHT22;1855;50.934;6.958;2023-02-03T13:05:31;9.80;99.90
3678;DHT22;1855;50.934;6.958;2023-02-03T13:08:05;9.80;99.90
3678;DHT22;1855;50.934;6.958;2023-02-03T13:10:38;9.70;99.90
3678;DHT22;1855;50.934;6.958;2023-02-03T13:13:11;9.70;99.90
3678;DHT22;1855;50.934;6.958;2023-02-03T13:15:42;9.70;99.90
3678;DHT22;1855;50.934;6.958;2023-02-03T13:18:17;9.70;99.90
3678;DHT22;1855;50.934;6.958;2023-02-03T13:20:47;9.70;99.90
3678;DHT22;1855;50.934;6.958;2023-02-03T13:23:14;9.60;99.90
3678;DHT22;1855;50.934;6.958;2023-02-03T13:25:51;9.60;99.90
3678;DHT22;1855;50.934;6.958;2023-02-03T13:28:32;9.50;99.90
3678;DHT22;1855;50.934;6.958;2023-02-03T13:31:13;9.40;99.90
3678;DHT22;1855;50.934;6.958;2023-02-03T13:34:00;9.40;99.90
3678;DHT22;1855;50.934;6.958;2023-02-03T13:39:49;9.20;99.90
3678;DHT22;1855;50.934;6.958;2023-02-03T13:42:21;9.20;99.90
3678;DHT22;1855;50.934;6.958;2023-02-03T13:44:53;9.10;99.90
3678;DHT22;1855;50.934;6.958;2023-02-03T13:47:25;9.10;99.90
3678;DHT22;1855;50.934;6.958;2023-02-03T13:49:55;9.00;99.90
3678;DHT22;1855;50.934;6.958;2023-02-03T13:52:28;9.00;99.90
3678;DHT22;1855;50.934;6.958;2023-02-03T13:54:57;8.90;99.90
3678;DHT22;1855;50.934;6.958;2023-02-03T13:57:31;8.90;99.90
3678;DHT22;1855;50.934;6.958;2023-02-03T14:00:00;8.90;99.90
3678;DHT22;1855;50.934;6.958;2023-02-03T14:02:52;8.90;99.90
3678;DHT22;1855;50.934;6.958;2023-02-03T14:05:39;8.90;99.90
3678;DHT22;1855;50.934;6.958;2023-02-03T14:11:45;8.90;99.90
3678;DHT22;1855;50.934;6.958;2023-02-03T14:14:44;8.90;99.90
3678;DHT22;1855;50.934;6.958;2023-02-03T14:17:55;9.00;99.90
3678;DHT22;1855;50.934;6.958;2023-02-03T14:23:40;9.10;99.90
3678;DHT22;1855;50.934;6.958;2023-02-03T14:26:16;9.20;99.90
3678;DHT22;1855;50.934;6.958;2023-02-03T14:28:46;9.20;99.90
3678;DHT22;1855;50.934;6.958;2023-02-03T14:31:16;9.20;99.90
3678;DHT22;1855;50.934;6.958;2023-02-03T14:34:03;9.30;99.90
3678;DHT22;1855;50.934;6.958;2023-02-03T14:36:56;9.30;99.90
3678;DHT22;1855;50.934;6.958;2023-02-03T14:40:03;9.30;99.90
3678;DHT22;1855;50.934;6.958;2023-02-03T14:42:56;9.30;99.90
3678;DHT22;1855;50.934;6.958;2023-02-03T14:51:38;9.60;99.90
3678;DHT22;1855;50.934;6.958;2023-02-03T14:54:22;9.80;99.90
3678;DHT22;1855;50.934;6.958;2023-02-03T14:57:03;9.80;99.90
3678;DHT22;1855;50.934;6.958;2023-02-03T14:59:46;9.90;99.90
3678;DHT22;1855;50.934;6.958;2023-02-03T15:02:18;9.90;99.90
3678;DHT22;1855;50.934;6.958;2023-02-03T15:04:45;9.90;99.90
3678;DHT22;1855;50.934;6.958;2023-02-03T15:07:34;9.90;99.90
3678;DHT22;1855;50.934;6.958;2023-02-03T15:10:02;10.00;99.90
3678;DHT22;1855;50.934;6.958;2023-02-03T15:12:35;10.00;99.90
3678;DHT22;1855;50.934;6.958;2023-02-03T15:15:13;10.00;99.90
3678;DHT22;1855;50.934;6.958;2023-02-03T15:17:41;10.00;99.90
3678;DHT22;1855;50.934;6.958;2023-02-03T15:20:24;10.00;99.90
3678;DHT22;1855;50.934;6.958;2023-02-03T15:22:51;10.00;99.90
3678;DHT22;1855;50.934;6.958;2023-02-03T15:25:20;10.00;99.90
3678;DHT22;1855;50.934;6.958;2023-02-03T15:27:49;10.00;99.90
3678;DHT22;1855;50.934;6.958;2023-02-03T15:30:23;10.00;99.90
3678;DHT22;1855;50.934;6.958;2023-02-03T15:32:58;10.00;99.90
3678;DHT22;1855;50.934;6.958;2023-02-03T15:35:29;10.00;99.90
3678;DHT22;1855;50.934;6.958;2023-02-03T15:37:59;10.10;99.90
3678;DHT22;1855;50.934;6.958;2023-02-03T15:40:34;10.10;99.90
3678;DHT22;1855;50.934;6.958;2023-02-03T15:43:06;10.10;99.90
3678;DHT22;1855;50.934;6.958;2023-02-03T15:45:36;10.10;99.90
3678;DHT22;1855;50.934;6.958;2023-02-03T15:48:13;10.10;99.90
3678;DHT22;1855;50.934;6.958;2023-02-03T15:50:42;10.10;99.90
3678;DHT22;1855;50.934;6.958;2023-02-03T15:53:14;10.10;99.90
3678;DHT22;1855;50.934;6.958;2023-02-03T15:55:46;10.10;99.90
3678;DHT22;1855;50.934;6.958;2023-02-03T15:58:17;10.00;99.90
3678;DHT22;1855;50.934;6.958;2023-02-03T16:00:47;10.00;99.90
3678;DHT22;1855;50.934;6.958;2023-02-03T16:03:18;10.00;99.90
3678;DHT22;1855;50.934;6.958;2023-02-03T16:05:47;9.90;99.90
3678;DHT22;1855;50.934;6.958;2023-02-03T16:08:33;9.90;99.90
3678;DHT22;1855;50.934;6.958;2023-02-03T16:11:01;9.80;99.90
3678;DHT22;1855;50.934;6.958;2023-02-03T16:13:45;9.80;99.90
3678;DHT22;1855;50.934;6.958;2023-02-03T16:16:15;9.70;99.90
3678;DHT22;1855;50.934;6.958;2023-02-03T16:18:51;9.70;99.90
3678;DHT22;1855;50.934;6.958;2023-02-03T16:21:27;9.70;99.90
3678;DHT22;1855;50.934;6.958;2023-02-03T16:23:55;9.60;99.90
3678;DHT22;1855;50.934;6.958;2023-02-03T16:26:23;9.60;99.90
3678;DHT22;1855;50.934;6.958;2023-02-03T16:29:09;9.60;99.90
3678;DHT22;1855;50.934;6.958;2023-02-03T16:31:54;9.50;99.90
3678;DHT22;1855;50.934;6.958;2023-02-03T16:34:40;9.40;99.90
3678;DHT22;1855;50.934;6.958;2023-02-03T16:37:28;9.40;99.90
3678;DHT22;1855;50.934;6.958;2023-02-03T16:40:14;9.30;99.90
3678;DHT22;1855;50.934;6.958;2023-02-03T16:43:00;9.20;99.90
3678;DHT22;1855;50.934;6.958;2023-02-03T16:45:45;9.20;99.90
3678;DHT22;1855;50.934;6.958;2023-02-03T16:48:34;9.10;99.90
3678;DHT22;1855;50.934;6.958;2023-02-03T16:51:19;9.00;99.90
3678;DHT22;1855;50.934;6.958;2023-02-03T16:53:46;9.00;99.90
3678;DHT22;1855;50.934;6.958;2023-02-03T16:56:14;8.90;99.90
3678;DHT22;1855;50.934;6.958;2023-02-03T16:58:43;8.90;99.90
3678;DHT22;1855;50.934;6.958;2023-02-03T17:01:10;8.80;99.90
3678;DHT22;1855;50.934;6.958;2023-02-03T17:03:38;8.80;99.90
3678;DHT22;1855;50.934;6.958;2023-02-03T17:06:08;8.80;99.90
3678;DHT22;1855;50.934;6.958;2023-02-03T17:08:37;8.70;99.90
3678;DHT22;1855;50.934;6.958;2023-02-03T17:11:06;8.70;99.90